sensor_id;sensor_type;location;lat;lon;timestamp;P1;durP1;ratioP1;P2;durP2;ratioP2
21754;SDS011;11039;50.028;19.938;2023-03-20T00:00:56;5.90;;;4.55;;
21754;SDS011;11039;50.028;19.938;2023-03-20T00:03:22;6.22;;;4.65;;
21754;SDS011;11039;50.028;19.938;2023-03-20T00:05:49;5.15;;;3.80;;
21754;SDS011;11039;50.028;19.938;2023-03-20T00:08:15;6.70;;;4.45;;
21754;SDS011;11039;50.028;19.938;2023-03-20T00:10:43;5.65;;;4.20;;
21754;SDS011;11039;50.028;19.938;2023-03-20T00:13:12;5.47;;;4.15;;
21754;SDS011;11039;50.028;19.938;2023-03-20T00:15:40;5.40;;;4.18;;
21754;SDS011;11039;50.028;19.938;2023-03-20T00:18:40;5.85;;;4.47;;
21754;SDS011;11039;50.028;19.938;2023-03-20T00:21:00;6.07;;;4.60;;
21754;SDS011;11039;50.028;19.938;2023-03-20T00:23:26;5.93;;;4.30;;
21754;SDS011;11039;50.028;19.938;2023-03-20T00:25:52;6.35;;;4.55;;
21754;SDS011;11039;50.028;19.938;2023-03-20T00:30:44;6.40;;;4.38;;
21754;SDS011;11039;50.028;19.938;2023-03-20T00:33:10;5.40;;;4.30;;
21754;SDS011;11039;50.028;19.938;2023-03-20T00:35:36;6.28;;;4.50;;
21754;SDS011;11039;50.028;19.938;2023-03-20T00:38:02;5.72;;;4.22;;
21754;SDS011;11039;50.028;19.938;2023-03-20T00:40:29;5.55;;;4.38;;
21754;SDS011;11039;50.028;19.938;2023-03-20T00:42:59;4.97;;;3.80;;
21754;SDS011;11039;50.028;19.938;2023-03-20T00:45:26;6.00;;;4.13;;
21754;SDS011;11039;50.028;19.938;2023-03-20T00:47:53;5.30;;;3.88;;
21754;SDS011;11039;50.028;19.938;2023-03-20T00:50:21;5.80;;;4.18;;
21754;SDS011;11039;50.028;19.938;2023-03-20T00:52:47;5.82;;;4.50;;
21754;SDS011;11039;50.028;19.938;2023-03-20T00:55:14;6.38;;;4.68;;
21754;SDS011;11039;50.028;19.938;2023-03-20T00:57:44;5.15;;;4.28;;
21754;SDS011;11039;50.028;19.938;2023-03-20T01:02:37;5.85;;;4.55;;
21754;SDS011;11039;50.028;19.938;2023-03-20T01:05:03;5.78;;;4.25;;
21754;SDS011;11039;50.028;19.938;2023-03-20T01:07:29;5.43;;;4.10;;
21754;SDS011;11039;50.028;19.938;2023-03-20T01:09:55;5.22;;;3.88;;
21754;SDS011;11039;50.028;19.938;2023-03-20T01:12:22;5.68;;;4.25;;
21754;SDS011;11039;50.028;19.938;2023-03-20T01:14:52;5.80;;;4.15;;
21754;SDS011;11039;50.028;19.938;2023-03-20T01:17:20;5.70;;;4.45;;
21754;SDS011;11039;50.028;19.938;2023-03-20T01:19:47;5.13;;;4.10;;
21754;SDS011;11039;50.028;19.938;2023-03-20T01:22:13;5.55;;;4.38;;
21754;SDS011;11039;50.028;19.938;2023-03-20T01:24:39;5.50;;;4.30;;
21754;SDS011;11039;50.028;19.938;2023-03-20T01:27:13;6.28;;;4.53;;
21754;SDS011;11039;50.028;19.938;2023-03-20T01:29:39;6.22;;;4.47;;
21754;SDS011;11039;50.028;19.938;2023-03-20T01:32:16;5.50;;;3.92;;
21754;SDS011;11039;50.028;19.938;2023-03-20T01:34:42;5.22;;;4.05;;
21754;SDS011;11039;50.028;19.938;2023-03-20T01:37:12;5.70;;;4.18;;
21754;SDS011;11039;50.028;19.938;2023-03-20T01:39:39;4.68;;;3.70;;
21754;SDS011;11039;50.028;19.938;2023-03-20T01:42:05;5.40;;;4.10;;
21754;SDS011;11039;50.028;19.938;2023-03-20T01:44:32;5.45;;;4.22;;
21754;SDS011;11039;50.028;19.938;2023-03-20T01:46:59;6.07;;;3.95;;
21754;SDS011;11039;50.028;19.938;2023-03-20T01:51:52;5.90;;;4.45;;
21754;SDS011;11039;50.028;19.938;2023-03-20T01:54:27;5.68;;;4.03;;
21754;SDS011;11039;50.028;19.938;2023-03-20T01:57:08;5.05;;;4.00;;
21754;SDS011;11039;50.028;19.938;2023-03-20T01:59:36;5.57;;;4.13;;
21754;SDS011;11039;50.028;19.938;2023-03-20T02:02:05;5.60;;;3.92;;
21754;SDS011;11039;50.028;19.938;2023-03-20T02:04:33;5.07;;;4.25;;
21754;SDS011;11039;50.028;19.938;2023-03-20T02:07:01;5.93;;;3.95;;
21754;SDS011;11039;50.028;19.938;2023-03-20T02:09:27;4.57;;;3.90;;
21754;SDS011;11039;50.028;19.938;2023-03-20T02:11:53;5.38;;;3.97;;
21754;SDS011;11039;50.028;19.938;2023-03-20T02:14:20;5.68;;;4.38;;
21754;SDS011;11039;50.028;19.938;2023-03-20T02:16:47;7.30;;;4.10;;
21754;SDS011;11039;50.028;19.938;2023-03-20T02:19:19;5.55;;;4.05;;
21754;SDS011;11039;50.028;19.938;2023-03-20T02:21:59;4.78;;;3.70;;
21754;SDS011;11039;50.028;19.938;2023-03-20T02:27:17;5.53;;;3.88;;
21754;SDS011;11039;50.028;19.938;2023-03-20T02:37:35;5.18;;;3.83;;
21754;SDS011;11039;50.028;19.938;2023-03-20T02:42:59;5.38;;;4.13;;
21754;SDS011;11039;50.028;19.938;2023-03-20T02:45:28;4.75;;;3.85;;
21754;SDS011;11039;50.028;19.938;2023-03-20T02:48:37;5.65;;;4.20;;
21754;SDS011;11039;50.028;19.938;2023-03-20T02:50:46;6.55;;;4.03;;
21754;SDS011;11039;50.028;19.938;2023-03-20T02:58:12;4.95;;;3.85;;
21754;SDS011;11039;50.028;19.938;2023-03-20T03:05:39;6.25;;;4.75;;
21754;SDS011;11039;50.028;19.938;2023-03-20T03:08:07;5.28;;;4.00;;
21754;SDS011;11039;50.028;19.938;2023-03-20T03:10:35;5.57;;;3.95;;
21754;SDS011;11039;50.028;19.938;2023-03-20T03:13:03;5.20;;;4.22;;
21754;SDS011;11039;50.028;19.938;2023-03-20T03:15:35;6.22;;;4.50;;
21754;SDS011;11039;50.028;19.938;2023-03-20T03:18:02;6.55;;;4.35;;
21754;SDS011;11039;50.028;19.938;2023-03-20T03:20:31;5.25;;;4.07;;
21754;SDS011;11039;50.028;19.938;2023-03-20T03:22:58;5.30;;;3.83;;
21754;SDS011;11039;50.028;19.938;2023-03-20T03:25:26;4.75;;;3.50;;
21754;SDS011;11039;50.028;19.938;2023-03-20T03:30:54;5.90;;;4.22;;
21754;SDS011;11039;50.028;19.938;2023-03-20T03:35:47;5.47;;;4.20;;
21754;SDS011;11039;50.028;19.938;2023-03-20T03:41:27;5.60;;;3.85;;
21754;SDS011;11039;50.028;19.938;2023-03-20T03:46:46;5.68;;;4.15;;
21754;SDS011;11039;50.028;19.938;2023-03-20T03:49:15;5.93;;;4.30;;
21754;SDS011;11039;50.028;19.938;2023-03-20T03:51:44;4.53;;;3.60;;
21754;SDS011;11039;50.028;19.938;2023-03-20T03:54:21;5.93;;;3.97;;
21754;SDS011;11039;50.028;19.938;2023-03-20T03:56:48;6.32;;;3.78;;
21754;SDS011;11039;50.028;19.938;2023-03-20T03:59:18;5.25;;;4.05;;
21754;SDS011;11039;50.028;19.938;2023-03-20T04:01:44;4.70;;;3.78;;
21754;SDS011;11039;50.028;19.938;2023-03-20T04:04:11;4.82;;;3.95;;
21754;SDS011;11039;50.028;19.938;2023-03-20T04:06:40;4.95;;;3.90;;
21754;SDS011;11039;50.028;19.938;2023-03-20T04:09:06;5.18;;;4.10;;
21754;SDS011;11039;50.028;19.938;2023-03-20T04:11:32;4.72;;;3.75;;
21754;SDS011;11039;50.028;19.938;2023-03-20T04:13:59;4.88;;;3.70;;
21754;SDS011;11039;50.028;19.938;2023-03-20T04:16:26;5.80;;;3.55;;
21754;SDS011;11039;50.028;19.938;2023-03-20T04:18:52;4.78;;;3.70;;
21754;SDS011;11039;50.028;19.938;2023-03-20T04:21:20;5.82;;;3.88;;
21754;SDS011;11039;50.028;19.938;2023-03-20T04:23:46;4.85;;;3.50;;
21754;SDS011;11039;50.028;19.938;2023-03-20T04:26:12;5.93;;;4.10;;
21754;SDS011;11039;50.028;19.938;2023-03-20T04:28:38;4.65;;;3.92;;
21754;SDS011;11039;50.028;19.938;2023-03-20T04:31:04;5.22;;;3.75;;
21754;SDS011;11039;50.028;19.938;2023-03-20T04:33:30;4.80;;;3.75;;
21754;SDS011;11039;50.028;19.938;2023-03-20T04:35:56;5.45;;;3.75;;
21754;SDS011;11039;50.028;19.938;2023-03-20T04:38:22;5.75;;;4.22;;
21754;SDS011;11039;50.028;19.938;2023-03-20T04:40:48;5.15;;;3.97;;
21754;SDS011;11039;50.028;19.938;2023-03-20T04:43:15;5.70;;;4.05;;
21754;SDS011;11039;50.028;19.938;2023-03-20T04:45:41;6.38;;;4.10;;
21754;SDS011;11039;50.028;19.938;2023-03-20T04:48:07;5.70;;;3.90;;
21754;SDS011;11039;50.028;19.938;2023-03-20T04:50:33;5.22;;;4.15;;
21754;SDS011;11039;50.028;19.938;2023-03-20T04:52:59;4.68;;;3.58;;
21754;SDS011;11039;50.028;19.938;2023-03-20T04:55:25;5.13;;;3.50;;
21754;SDS011;11039;50.028;19.938;2023-03-20T04:57:52;4.55;;;4.00;;
21754;SDS011;11039;50.028;19.938;2023-03-20T05:00:18;5.85;;;4.35;;
21754;SDS011;11039;50.028;19.938;2023-03-20T05:02:44;5.55;;;4.00;;
21754;SDS011;11039;50.028;19.938;2023-03-20T05:05:10;4.93;;;3.67;;
21754;SDS011;11039;50.028;19.938;2023-03-20T05:07:36;4.63;;;3.85;;
21754;SDS011;11039;50.028;19.938;2023-03-20T05:10:03;5.38;;;3.95;;
21754;SDS011;11039;50.028;19.938;2023-03-20T05:12:29;4.97;;;3.72;;
21754;SDS011;11039;50.028;19.938;2023-03-20T05:14:55;4.90;;;3.60;;
21754;SDS011;11039;50.028;19.938;2023-03-20T05:17:22;5.57;;;3.83;;
21754;SDS011;11039;50.028;19.938;2023-03-20T05:19:48;4.68;;;3.70;;
21754;SDS011;11039;50.028;19.938;2023-03-20T05:22:15;4.63;;;3.40;;
21754;SDS011;11039;50.028;19.938;2023-03-20T05:24:41;4.13;;;3.35;;
21754;SDS011;11039;50.028;19.938;2023-03-20T05:27:07;5.38;;;3.38;;
21754;SDS011;11039;50.028;19.938;2023-03-20T05:29:33;5.03;;;3.70;;
21754;SDS011;11039;50.028;19.938;2023-03-20T05:31:59;4.65;;;3.58;;
21754;SDS011;11039;50.028;19.938;2023-03-20T05:34:25;5.05;;;3.67;;
21754;SDS011;11039;50.028;19.938;2023-03-20T05:36:52;4.95;;;3.67;;
21754;SDS011;11039;50.028;19.938;2023-03-20T05:39:18;5.18;;;3.47;;
21754;SDS011;11039;50.028;19.938;2023-03-20T05:41:44;5.30;;;3.70;;
21754;SDS011;11039;50.028;19.938;2023-03-20T05:44:10;4.80;;;3.50;;
21754;SDS011;11039;50.028;19.938;2023-03-20T05:46:36;4.68;;;3.58;;
21754;SDS011;11039;50.028;19.938;2023-03-20T05:49:02;4.53;;;3.40;;
21754;SDS011;11039;50.028;19.938;2023-03-20T05:51:28;4.63;;;3.40;;
21754;SDS011;11039;50.028;19.938;2023-03-20T05:53:54;4.57;;;3.35;;
21754;SDS011;11039;50.028;19.938;2023-03-20T05:56:20;4.68;;;3.13;;
21754;SDS011;11039;50.028;19.938;2023-03-20T05:58:46;4.18;;;3.22;;
21754;SDS011;11039;50.028;19.938;2023-03-20T06:01:12;4.88;;;3.45;;
21754;SDS011;11039;50.028;19.938;2023-03-20T06:03:42;4.28;;;3.38;;
21754;SDS011;11039;50.028;19.938;2023-03-20T06:06:08;4.78;;;3.40;;
21754;SDS011;11039;50.028;19.938;2023-03-20T06:08:34;4.45;;;3.35;;
21754;SDS011;11039;50.028;19.938;2023-03-20T06:11:01;4.95;;;3.72;;
21754;SDS011;11039;50.028;19.938;2023-03-20T06:13:27;4.82;;;3.30;;
21754;SDS011;11039;50.028;19.938;2023-03-20T06:15:54;4.50;;;3.40;;
21754;SDS011;11039;50.028;19.938;2023-03-20T06:18:20;4.03;;;3.30;;
21754;SDS011;11039;50.028;19.938;2023-03-20T06:20:50;4.45;;;3.58;;
21754;SDS011;11039;50.028;19.938;2023-03-20T06:23:17;3.90;;;3.10;;
21754;SDS011;11039;50.028;19.938;2023-03-20T06:25:43;4.63;;;3.33;;
21754;SDS011;11039;50.028;19.938;2023-03-20T06:28:09;6.03;;;3.35;;
21754;SDS011;11039;50.028;19.938;2023-03-20T06:30:35;4.97;;;3.78;;
21754;SDS011;11039;50.028;19.938;2023-03-20T06:33:02;4.35;;;2.97;;
21754;SDS011;11039;50.028;19.938;2023-03-20T06:35:28;4.15;;;3.08;;
21754;SDS011;11039;50.028;19.938;2023-03-20T06:37:56;4.80;;;3.05;;
21754;SDS011;11039;50.028;19.938;2023-03-20T06:40:22;4.35;;;2.92;;
21754;SDS011;11039;50.028;19.938;2023-03-20T06:42:48;4.07;;;2.80;;
21754;SDS011;11039;50.028;19.938;2023-03-20T06:45:14;3.83;;;2.80;;
21754;SDS011;11039;50.028;19.938;2023-03-20T06:47:40;4.90;;;2.92;;
21754;SDS011;11039;50.028;19.938;2023-03-20T06:50:07;4.55;;;3.47;;
21754;SDS011;11039;50.028;19.938;2023-03-20T06:52:34;5.35;;;2.85;;
21754;SDS011;11039;50.028;19.938;2023-03-20T06:55:00;3.55;;;2.72;;
21754;SDS011;11039;50.028;19.938;2023-03-20T06:57:26;5.30;;;2.95;;
21754;SDS011;11039;50.028;19.938;2023-03-20T06:59:52;3.72;;;2.90;;
21754;SDS011;11039;50.028;19.938;2023-03-20T07:02:18;3.97;;;2.90;;
21754;SDS011;11039;50.028;19.938;2023-03-20T07:04:45;4.00;;;3.15;;
21754;SDS011;11039;50.028;19.938;2023-03-20T07:07:11;3.58;;;2.55;;
21754;SDS011;11039;50.028;19.938;2023-03-20T07:09:37;4.63;;;3.40;;
21754;SDS011;11039;50.028;19.938;2023-03-20T07:12:04;3.80;;;2.83;;
21754;SDS011;11039;50.028;19.938;2023-03-20T07:14:30;4.90;;;2.72;;
21754;SDS011;11039;50.028;19.938;2023-03-20T07:16:56;5.53;;;3.78;;
21754;SDS011;11039;50.028;19.938;2023-03-20T07:19:22;4.32;;;3.00;;
21754;SDS011;11039;50.028;19.938;2023-03-20T07:21:48;4.15;;;2.83;;
21754;SDS011;11039;50.028;19.938;2023-03-20T07:24:14;6.55;;;3.35;;
21754;SDS011;11039;50.028;19.938;2023-03-20T07:26:41;4.93;;;3.65;;
21754;SDS011;11039;50.028;19.938;2023-03-20T07:29:07;5.70;;;3.35;;
21754;SDS011;11039;50.028;19.938;2023-03-20T07:31:33;5.03;;;3.10;;
21754;SDS011;11039;50.028;19.938;2023-03-20T07:33:59;6.50;;;3.75;;
21754;SDS011;11039;50.028;19.938;2023-03-20T07:36:25;5.45;;;3.53;;
21754;SDS011;11039;50.028;19.938;2023-03-20T07:38:51;5.15;;;3.20;;
21754;SDS011;11039;50.028;19.938;2023-03-20T07:41:17;6.28;;;3.25;;
21754;SDS011;11039;50.028;19.938;2023-03-20T07:43:43;5.15;;;3.55;;
21754;SDS011;11039;50.028;19.938;2023-03-20T07:46:09;4.22;;;2.90;;
21754;SDS011;11039;50.028;19.938;2023-03-20T07:48:35;7.63;;;3.08;;
21754;SDS011;11039;50.028;19.938;2023-03-20T07:51:01;3.83;;;3.03;;
21754;SDS011;11039;50.028;19.938;2023-03-20T07:53:28;13.75;;;9.13;;
21754;SDS011;11039;50.028;19.938;2023-03-20T07:55:54;15.77;;;9.65;;
21754;SDS011;11039;50.028;19.938;2023-03-20T07:58:20;12.23;;;9.75;;
21754;SDS011;11039;50.028;19.938;2023-03-20T08:00:46;16.58;;;11.88;;
21754;SDS011;11039;50.028;19.938;2023-03-20T08:03:12;12.85;;;9.60;;
21754;SDS011;11039;50.028;19.938;2023-03-20T08:05:38;17.17;;;10.68;;
21754;SDS011;11039;50.028;19.938;2023-03-20T08:08:04;13.43;;;9.50;;
21754;SDS011;11039;50.028;19.938;2023-03-20T08:10:30;12.88;;;9.88;;
21754;SDS011;11039;50.028;19.938;2023-03-20T08:12:56;14.98;;;10.65;;
21754;SDS011;11039;50.028;19.938;2023-03-20T08:15:23;19.70;;;12.80;;
21754;SDS011;11039;50.028;19.938;2023-03-20T08:17:49;21.73;;;12.20;;
21754;SDS011;11039;50.028;19.938;2023-03-20T08:20:15;15.05;;;11.25;;
21754;SDS011;11039;50.028;19.938;2023-03-20T08:22:42;15.73;;;12.45;;
21754;SDS011;11039;50.028;19.938;2023-03-20T08:25:09;14.95;;;10.75;;
21754;SDS011;11039;50.028;19.938;2023-03-20T08:27:35;13.48;;;9.57;;
21754;SDS011;11039;50.028;19.938;2023-03-20T08:30:02;12.77;;;9.52;;
21754;SDS011;11039;50.028;19.938;2023-03-20T08:32:28;17.15;;;10.93;;
21754;SDS011;11039;50.028;19.938;2023-03-20T08:34:55;13.80;;;9.90;;
21754;SDS011;11039;50.028;19.938;2023-03-20T08:37:21;12.27;;;8.65;;
21754;SDS011;11039;50.028;19.938;2023-03-20T08:39:47;11.48;;;8.45;;
21754;SDS011;11039;50.028;19.938;2023-03-20T08:42:14;12.00;;;9.10;;
21754;SDS011;11039;50.028;19.938;2023-03-20T08:44:40;12.68;;;8.82;;
21754;SDS011;11039;50.028;19.938;2023-03-20T08:47:06;12.50;;;9.45;;
21754;SDS011;11039;50.028;19.938;2023-03-20T08:49:34;8.63;;;6.60;;
21754;SDS011;11039;50.028;19.938;2023-03-20T08:52:00;9.02;;;5.70;;
21754;SDS011;11039;50.028;19.938;2023-03-20T08:54:27;8.45;;;6.03;;
21754;SDS011;11039;50.028;19.938;2023-03-20T08:56:53;9.45;;;6.20;;
21754;SDS011;11039;50.028;19.938;2023-03-20T08:59:19;8.95;;;5.95;;
21754;SDS011;11039;50.028;19.938;2023-03-20T09:01:45;6.93;;;5.00;;
21754;SDS011;11039;50.028;19.938;2023-03-20T09:04:12;7.03;;;4.60;;
21754;SDS011;11039;50.028;19.938;2023-03-20T09:06:38;7.25;;;5.60;;
21754;SDS011;11039;50.028;19.938;2023-03-20T09:09:05;6.15;;;4.47;;
21754;SDS011;11039;50.028;19.938;2023-03-20T09:11:31;5.88;;;4.15;;
21754;SDS011;11039;50.028;19.938;2023-03-20T09:13:57;5.70;;;4.18;;
21754;SDS011;11039;50.028;19.938;2023-03-20T09:16:24;5.28;;;3.63;;
21754;SDS011;11039;50.028;19.938;2023-03-20T09:18:50;4.05;;;3.15;;
21754;SDS011;11039;50.028;19.938;2023-03-20T09:21:16;5.03;;;3.67;;
21754;SDS011;11039;50.028;19.938;2023-03-20T09:23:43;3.47;;;2.92;;
21754;SDS011;11039;50.028;19.938;2023-03-20T09:26:09;4.45;;;3.65;;
21754;SDS011;11039;50.028;19.938;2023-03-20T09:28:35;4.18;;;3.30;;
21754;SDS011;11039;50.028;19.938;2023-03-20T09:31:01;3.75;;;3.15;;
21754;SDS011;11039;50.028;19.938;2023-03-20T09:33:27;3.78;;;3.15;;
21754;SDS011;11039;50.028;19.938;2023-03-20T09:35:54;3.95;;;2.90;;
21754;SDS011;11039;50.028;19.938;2023-03-20T09:38:20;3.75;;;2.72;;
21754;SDS011;11039;50.028;19.938;2023-03-20T09:40:50;3.67;;;2.78;;
21754;SDS011;11039;50.028;19.938;2023-03-20T09:43:43;4.63;;;2.97;;
21754;SDS011;11039;50.028;19.938;2023-03-20T09:53:42;3.17;;;2.20;;
21754;SDS011;11039;50.028;19.938;2023-03-20T09:56:13;4.43;;;2.47;;
21754;SDS011;11039;50.028;19.938;2023-03-20T09:58:40;3.17;;;2.35;;
21754;SDS011;11039;50.028;19.938;2023-03-20T10:01:10;3.28;;;2.40;;
21754;SDS011;11039;50.028;19.938;2023-03-20T10:03:41;3.03;;;2.60;;
21754;SDS011;11039;50.028;19.938;2023-03-20T10:06:12;3.35;;;2.50;;
21754;SDS011;11039;50.028;19.938;2023-03-20T10:08:38;2.67;;;2.05;;
21754;SDS011;11039;50.028;19.938;2023-03-20T10:18:36;3.13;;;2.03;;
21754;SDS011;11039;50.028;19.938;2023-03-20T10:21:11;3.00;;;2.22;;
21754;SDS011;11039;50.028;19.938;2023-03-20T10:26:18;2.92;;;2.17;;
21754;SDS011;11039;50.028;19.938;2023-03-20T10:34:00;3.03;;;2.25;;
21754;SDS011;11039;50.028;19.938;2023-03-20T10:41:39;2.28;;;1.98;;
21754;SDS011;11039;50.028;19.938;2023-03-20T10:44:13;3.22;;;2.40;;
21754;SDS011;11039;50.028;19.938;2023-03-20T10:46:41;2.50;;;2.10;;
21754;SDS011;11039;50.028;19.938;2023-03-20T10:51:53;2.67;;;2.00;;
21754;SDS011;11039;50.028;19.938;2023-03-20T10:54:26;3.15;;;2.15;;
21754;SDS011;11039;50.028;19.938;2023-03-20T10:56:54;3.08;;;2.10;;
21754;SDS011;11039;50.028;19.938;2023-03-20T10:59:25;3.83;;;2.00;;
21754;SDS011;11039;50.028;19.938;2023-03-20T11:01:52;2.95;;;2.00;;
21754;SDS011;11039;50.028;19.938;2023-03-20T11:04:18;2.33;;;2.08;;
21754;SDS011;11039;50.028;19.938;2023-03-20T11:06:47;2.58;;;2.15;;
21754;SDS011;11039;50.028;19.938;2023-03-20T11:09:15;6.72;;;5.50;;
21754;SDS011;11039;50.028;19.938;2023-03-20T11:11:44;8.20;;;6.07;;
21754;SDS011;11039;50.028;19.938;2023-03-20T11:14:18;11.93;;;8.75;;
21754;SDS011;11039;50.028;19.938;2023-03-20T11:16:48;9.30;;;7.72;;
21754;SDS011;11039;50.028;19.938;2023-03-20T11:19:15;9.05;;;6.70;;
21754;SDS011;11039;50.028;19.938;2023-03-20T11:21:47;9.70;;;7.40;;
21754;SDS011;11039;50.028;19.938;2023-03-20T11:24:25;9.23;;;7.00;;
21754;SDS011;11039;50.028;19.938;2023-03-20T11:26:51;10.65;;;8.07;;
21754;SDS011;11039;50.028;19.938;2023-03-20T11:29:21;10.90;;;7.65;;
21754;SDS011;11039;50.028;19.938;2023-03-20T11:31:49;11.63;;;6.85;;
21754;SDS011;11039;50.028;19.938;2023-03-20T11:36:47;9.80;;;7.60;;
21754;SDS011;11039;50.028;19.938;2023-03-20T11:39:22;9.20;;;7.93;;
21754;SDS011;11039;50.028;19.938;2023-03-20T11:41:58;10.93;;;8.82;;
21754;SDS011;11039;50.028;19.938;2023-03-20T11:46:59;8.43;;;7.15;;
21754;SDS011;11039;50.028;19.938;2023-03-20T11:49:27;9.18;;;7.40;;
21754;SDS011;11039;50.028;19.938;2023-03-20T11:52:02;8.00;;;6.35;;
21754;SDS011;11039;50.028;19.938;2023-03-20T11:54:35;8.93;;;6.50;;
21754;SDS011;11039;50.028;19.938;2023-03-20T11:57:02;8.13;;;6.35;;
21754;SDS011;11039;50.028;19.938;2023-03-20T12:01:58;8.75;;;5.80;;
21754;SDS011;11039;50.028;19.938;2023-03-20T12:04:26;7.72;;;6.10;;
21754;SDS011;11039;50.028;19.938;2023-03-20T12:06:54;8.60;;;6.38;;
21754;SDS011;11039;50.028;19.938;2023-03-20T12:14:25;9.13;;;5.93;;
21754;SDS011;11039;50.028;19.938;2023-03-20T12:16:54;9.00;;;6.40;;
21754;SDS011;11039;50.028;19.938;2023-03-20T12:19:24;9.63;;;6.50;;
21754;SDS011;11039;50.028;19.938;2023-03-20T12:21:58;7.45;;;6.05;;
21754;SDS011;11039;50.028;19.938;2023-03-20T12:24:30;5.85;;;4.97;;
21754;SDS011;11039;50.028;19.938;2023-03-20T12:29:38;6.70;;;4.70;;
21754;SDS011;11039;50.028;19.938;2023-03-20T12:32:14;6.20;;;4.53;;
21754;SDS011;11039;50.028;19.938;2023-03-20T12:34:42;4.28;;;3.20;;
21754;SDS011;11039;50.028;19.938;2023-03-20T12:37:10;5.32;;;4.00;;
21754;SDS011;11039;50.028;19.938;2023-03-20T12:39:51;6.45;;;3.63;;
21754;SDS011;11039;50.028;19.938;2023-03-20T12:42:31;5.45;;;3.90;;
21754;SDS011;11039;50.028;19.938;2023-03-20T13:00:36;5.25;;;3.65;;
21754;SDS011;11039;50.028;19.938;2023-03-20T13:08:16;5.43;;;3.50;;
21754;SDS011;11039;50.028;19.938;2023-03-20T13:13:32;5.53;;;3.50;;
21754;SDS011;11039;50.028;19.938;2023-03-20T13:21:12;3.22;;;1.98;;
21754;SDS011;11039;50.028;19.938;2023-03-20T13:23:48;4.07;;;2.25;;
21754;SDS011;11039;50.028;19.938;2023-03-20T13:26:37;3.17;;;1.30;;
21754;SDS011;11039;50.028;19.938;2023-03-20T13:29:07;3.63;;;1.70;;
21754;SDS011;11039;50.028;19.938;2023-03-20T13:39:45;2.15;;;1.30;;
21754;SDS011;11039;50.028;19.938;2023-03-20T13:42:14;2.47;;;1.48;;
21754;SDS011;11039;50.028;19.938;2023-03-20T13:44:42;1.88;;;1.15;;
21754;SDS011;11039;50.028;19.938;2023-03-20T13:49:36;1.80;;;1.60;;
21754;SDS011;11039;50.028;19.938;2023-03-20T13:52:06;1.52;;;1.35;;
21754;SDS011;11039;50.028;19.938;2023-03-20T13:57:41;1.70;;;1.50;;
21754;SDS011;11039;50.028;19.938;2023-03-20T14:00:28;7.43;;;6.00;;
21754;SDS011;11039;50.028;19.938;2023-03-20T14:05:40;5.28;;;3.92;;
21754;SDS011;11039;50.028;19.938;2023-03-20T14:10:55;5.75;;;4.00;;
21754;SDS011;11039;50.028;19.938;2023-03-20T14:13:30;4.47;;;2.97;;
21754;SDS011;11039;50.028;19.938;2023-03-20T14:15:56;4.97;;;3.20;;
21754;SDS011;11039;50.028;19.938;2023-03-20T14:18:25;3.45;;;2.88;;
21754;SDS011;11039;50.028;19.938;2023-03-20T14:20:56;4.38;;;2.45;;
21754;SDS011;11039;50.028;19.938;2023-03-20T14:23:26;4.60;;;3.10;;
21754;SDS011;11039;50.028;19.938;2023-03-20T14:25:55;3.80;;;2.97;;
21754;SDS011;11039;50.028;19.938;2023-03-20T14:28:27;3.78;;;3.20;;
21754;SDS011;11039;50.028;19.938;2023-03-20T14:31:11;3.92;;;3.15;;
21754;SDS011;11039;50.028;19.938;2023-03-20T14:33:42;4.35;;;3.38;;
21754;SDS011;11039;50.028;19.938;2023-03-20T14:36:27;4.65;;;3.22;;
21754;SDS011;11039;50.028;19.938;2023-03-20T14:39:04;4.07;;;3.40;;
21754;SDS011;11039;50.028;19.938;2023-03-20T14:42:22;3.92;;;2.50;;
21754;SDS011;11039;50.028;19.938;2023-03-20T14:44:23;3.50;;;2.88;;
21754;SDS011;11039;50.028;19.938;2023-03-20T14:47:09;3.25;;;2.50;;
21754;SDS011;11039;50.028;19.938;2023-03-20T14:54:50;6.03;;;3.67;;
21754;SDS011;11039;50.028;19.938;2023-03-20T14:57:17;6.07;;;4.78;;
21754;SDS011;11039;50.028;19.938;2023-03-20T14:59:47;5.03;;;4.40;;
21754;SDS011;11039;50.028;19.938;2023-03-20T15:02:22;4.78;;;3.90;;
21754;SDS011;11039;50.028;19.938;2023-03-20T15:04:49;5.20;;;4.65;;
21754;SDS011;11039;50.028;19.938;2023-03-20T15:07:23;5.10;;;4.30;;
21754;SDS011;11039;50.028;19.938;2023-03-20T15:09:50;4.53;;;3.65;;
21754;SDS011;11039;50.028;19.938;2023-03-20T15:12:19;7.50;;;4.95;;
21754;SDS011;11039;50.028;19.938;2023-03-20T15:14:47;5.65;;;4.75;;
21754;SDS011;11039;50.028;19.938;2023-03-20T15:17:16;6.78;;;4.72;;
21754;SDS011;11039;50.028;19.938;2023-03-20T15:19:42;4.15;;;3.42;;
21754;SDS011;11039;50.028;19.938;2023-03-20T15:22:26;3.60;;;2.47;;
21754;SDS011;11039;50.028;19.938;2023-03-20T15:24:53;2.90;;;2.13;;
21754;SDS011;11039;50.028;19.938;2023-03-20T15:27:20;3.35;;;2.67;;
21754;SDS011;11039;50.028;19.938;2023-03-20T15:29:50;4.30;;;3.35;;
21754;SDS011;11039;50.028;19.938;2023-03-20T15:32:17;4.15;;;3.58;;
21754;SDS011;11039;50.028;19.938;2023-03-20T15:34:44;4.93;;;3.25;;
21754;SDS011;11039;50.028;19.938;2023-03-20T15:37:15;5.10;;;4.25;;
21754;SDS011;11039;50.028;19.938;2023-03-20T15:39:43;2.97;;;2.70;;
21754;SDS011;11039;50.028;19.938;2023-03-20T15:42:12;2.30;;;2.00;;
21754;SDS011;11039;50.028;19.938;2023-03-20T15:44:39;3.00;;;1.80;;
21754;SDS011;11039;50.028;19.938;2023-03-20T15:49:35;2.30;;;2.10;;
21754;SDS011;11039;50.028;19.938;2023-03-20T15:52:03;2.38;;;1.98;;
21754;SDS011;11039;50.028;19.938;2023-03-20T15:54:30;3.20;;;1.85;;
21754;SDS011;11039;50.028;19.938;2023-03-20T15:56:57;3.10;;;2.10;;
21754;SDS011;11039;50.028;19.938;2023-03-20T15:59:26;2.78;;;1.95;;
21754;SDS011;11039;50.028;19.938;2023-03-20T16:01:55;4.30;;;2.80;;
21754;SDS011;11039;50.028;19.938;2023-03-20T16:04:22;2.58;;;1.98;;
21754;SDS011;11039;50.028;19.938;2023-03-20T16:06:52;3.15;;;2.15;;
21754;SDS011;11039;50.028;19.938;2023-03-20T16:09:19;3.45;;;2.30;;
21754;SDS011;11039;50.028;19.938;2023-03-20T16:11:46;4.40;;;2.83;;
21754;SDS011;11039;50.028;19.938;2023-03-20T16:14:18;3.45;;;2.80;;
21754;SDS011;11039;50.028;19.938;2023-03-20T16:16:47;4.22;;;3.00;;
21754;SDS011;11039;50.028;19.938;2023-03-20T16:19:13;4.10;;;3.10;;
21754;SDS011;11039;50.028;19.938;2023-03-20T16:21:41;3.22;;;2.67;;
21754;SDS011;11039;50.028;19.938;2023-03-20T16:24:09;4.45;;;2.95;;
21754;SDS011;11039;50.028;19.938;2023-03-20T16:26:42;3.45;;;2.53;;
21754;SDS011;11039;50.028;19.938;2023-03-20T16:29:09;10.50;;;9.25;;
21754;SDS011;11039;50.028;19.938;2023-03-20T16:31:46;11.23;;;9.80;;
21754;SDS011;11039;50.028;19.938;2023-03-20T16:34:17;6.65;;;5.95;;
21754;SDS011;11039;50.028;19.938;2023-03-20T16:36:47;7.28;;;5.25;;
21754;SDS011;11039;50.028;19.938;2023-03-20T16:41:41;6.43;;;5.55;;
21754;SDS011;11039;50.028;19.938;2023-03-20T16:44:16;6.18;;;5.22;;
21754;SDS011;11039;50.028;19.938;2023-03-20T16:47:02;6.90;;;5.30;;
21754;SDS011;11039;50.028;19.938;2023-03-20T16:51:58;7.55;;;5.43;;
21754;SDS011;11039;50.028;19.938;2023-03-20T16:54:26;6.05;;;5.45;;
21754;SDS011;11039;50.028;19.938;2023-03-20T16:56:53;7.03;;;5.55;;
21754;SDS011;11039;50.028;19.938;2023-03-20T16:59:20;5.80;;;5.05;;
21754;SDS011;11039;50.028;19.938;2023-03-20T17:01:46;6.97;;;4.90;;
21754;SDS011;11039;50.028;19.938;2023-03-20T17:04:32;5.95;;;5.30;;
21754;SDS011;11039;50.028;19.938;2023-03-20T17:06:59;6.43;;;4.68;;
21754;SDS011;11039;50.028;19.938;2023-03-20T17:09:26;6.65;;;4.75;;